sensor_id;sensor_type;location;lat;lon;timestamp;P1;durP1;ratioP1;P2;durP2;ratioP2
19183;SDS011;9724;51.194;6.856;2024-01-15T00:00:52;51.13;;;18.93;;
19183;SDS011;9724;51.194;6.856;2024-01-15T00:03:19;45.50;;;17.07;;
19183;SDS011;9724;51.194;6.856;2024-01-15T00:05:45;49.17;;;18.83;;
19183;SDS011;9724;51.194;6.856;2024-01-15T00:08:12;51.70;;;19.00;;
19183;SDS011;9724;51.194;6.856;2024-01-15T00:10:38;46.50;;;18.60;;
19183;SDS011;9724;51.194;6.856;2024-01-15T00:13:06;51.20;;;18.40;;
19183;SDS011;9724;51.194;6.856;2024-01-15T00:15:33;53.23;;;19.00;;
19183;SDS011;9724;51.194;6.856;2024-01-15T00:18:01;55.17;;;19.67;;
19183;SDS011;9724;51.194;6.856;2024-01-15T00:20:28;51.30;;;19.97;;
19183;SDS011;9724;51.194;6.856;2024-01-15T00:22:56;54.50;;;19.47;;
19183;SDS011;9724;51.194;6.856;2024-01-15T00:25:23;55.93;;;20.00;;
19183;SDS011;9724;51.194;6.856;2024-01-15T00:27:49;52.53;;;19.90;;
19183;SDS011;9724;51.194;6.856;2024-01-15T00:30:16;47.90;;;18.00;;
19183;SDS011;9724;51.194;6.856;2024-01-15T00:32:43;51.60;;;19.93;;
19183;SDS011;9724;51.194;6.856;2024-01-15T00:35:09;56.23;;;20.70;;
19183;SDS011;9724;51.194;6.856;2024-01-15T00:37:36;56.93;;;20.33;;
19183;SDS011;9724;51.194;6.856;2024-01-15T00:40:03;54.53;;;19.53;;
19183;SDS011;9724;51.194;6.856;2024-01-15T00:42:30;50.90;;;18.80;;
19183;SDS011;9724;51.194;6.856;2024-01-15T00:44:56;51.40;;;19.07;;
19183;SDS011;9724;51.194;6.856;2024-01-15T00:47:23;49.40;;;20.07;;
19183;SDS011;9724;51.194;6.856;2024-01-15T00:49:49;48.33;;;18.53;;
19183;SDS011;9724;51.194;6.856;2024-01-15T00:52:15;55.13;;;18.60;;
19183;SDS011;9724;51.194;6.856;2024-01-15T00:54:41;53.53;;;20.03;;
19183;SDS011;9724;51.194;6.856;2024-01-15T00:57:08;57.33;;;19.80;;
19183;SDS011;9724;51.194;6.856;2024-01-15T00:59:35;58.83;;;20.17;;
19183;SDS011;9724;51.194;6.856;2024-01-15T01:02:01;50.43;;;18.70;;
19183;SDS011;9724;51.194;6.856;2024-01-15T01:04:28;51.97;;;20.43;;
19183;SDS011;9724;51.194;6.856;2024-01-15T01:06:54;54.77;;;19.30;;
19183;SDS011;9724;51.194;6.856;2024-01-15T01:09:20;52.27;;;19.70;;
19183;SDS011;9724;51.194;6.856;2024-01-15T01:11:46;56.13;;;19.83;;
19183;SDS011;9724;51.194;6.856;2024-01-15T01:14:13;50.33;;;18.67;;
19183;SDS011;9724;51.194;6.856;2024-01-15T01:16:39;51.70;;;20.30;;
19183;SDS011;9724;51.194;6.856;2024-01-15T01:19:06;55.53;;;20.43;;
19183;SDS011;9724;51.194;6.856;2024-01-15T01:21:32;53.47;;;19.43;;
19183;SDS011;9724;51.194;6.856;2024-01-15T01:23:59;49.17;;;18.63;;
19183;SDS011;9724;51.194;6.856;2024-01-15T01:26:25;52.27;;;18.97;;
19183;SDS011;9724;51.194;6.856;2024-01-15T01:28:51;57.13;;;19.30;;
19183;SDS011;9724;51.194;6.856;2024-01-15T01:31:17;54.37;;;19.07;;
19183;SDS011;9724;51.194;6.856;2024-01-15T01:33:44;55.93;;;19.17;;
19183;SDS011;9724;51.194;6.856;2024-01-15T01:36:11;48.03;;;18.00;;
19183;SDS011;9724;51.194;6.856;2024-01-15T01:38:37;52.10;;;19.10;;
19183;SDS011;9724;51.194;6.856;2024-01-15T01:41:04;45.47;;;18.73;;
19183;SDS011;9724;51.194;6.856;2024-01-15T01:43:30;45.70;;;18.10;;
19183;SDS011;9724;51.194;6.856;2024-01-15T01:45:56;44.03;;;18.93;;
19183;SDS011;9724;51.194;6.856;2024-01-15T01:48:23;43.77;;;17.23;;
19183;SDS011;9724;51.194;6.856;2024-01-15T01:50:51;47.47;;;17.57;;
19183;SDS011;9724;51.194;6.856;2024-01-15T01:53:18;42.67;;;17.80;;
19183;SDS011;9724;51.194;6.856;2024-01-15T01:55:44;48.67;;;18.13;;
19183;SDS011;9724;51.194;6.856;2024-01-15T01:58:11;48.40;;;18.23;;
19183;SDS011;9724;51.194;6.856;2024-01-15T02:00:37;46.80;;;18.63;;
19183;SDS011;9724;51.194;6.856;2024-01-15T02:03:04;53.03;;;18.70;;
19183;SDS011;9724;51.194;6.856;2024-01-15T02:05:30;50.37;;;17.53;;
19183;SDS011;9724;51.194;6.856;2024-01-15T02:07:57;46.27;;;18.23;;
19183;SDS011;9724;51.194;6.856;2024-01-15T02:10:23;49.30;;;18.47;;
19183;SDS011;9724;51.194;6.856;2024-01-15T02:12:49;45.77;;;18.17;;
19183;SDS011;9724;51.194;6.856;2024-01-15T02:15:16;46.77;;;18.10;;
19183;SDS011;9724;51.194;6.856;2024-01-15T02:17:58;49.43;;;18.07;;
19183;SDS011;9724;51.194;6.856;2024-01-15T02:20:25;42.90;;;17.30;;
19183;SDS011;9724;51.194;6.856;2024-01-15T02:22:51;44.20;;;17.03;;
19183;SDS011;9724;51.194;6.856;2024-01-15T02:25:18;43.33;;;17.17;;
19183;SDS011;9724;51.194;6.856;2024-01-15T02:27:45;42.53;;;16.63;;
19183;SDS011;9724;51.194;6.856;2024-01-15T02:30:12;50.77;;;18.90;;
19183;SDS011;9724;51.194;6.856;2024-01-15T02:32:38;48.90;;;17.40;;
19183;SDS011;9724;51.194;6.856;2024-01-15T02:35:05;46.90;;;18.23;;
19183;SDS011;9724;51.194;6.856;2024-01-15T02:37:31;44.67;;;16.77;;
19183;SDS011;9724;51.194;6.856;2024-01-15T02:39:58;40.13;;;16.23;;
19183;SDS011;9724;51.194;6.856;2024-01-15T02:42:26;42.77;;;16.17;;
19183;SDS011;9724;51.194;6.856;2024-01-15T02:44:52;42.73;;;17.20;;
19183;SDS011;9724;51.194;6.856;2024-01-15T02:47:18;39.87;;;15.40;;
19183;SDS011;9724;51.194;6.856;2024-01-15T02:49:45;40.57;;;16.13;;
19183;SDS011;9724;51.194;6.856;2024-01-15T02:52:11;38.70;;;15.83;;
19183;SDS011;9724;51.194;6.856;2024-01-15T02:54:37;46.57;;;16.70;;
19183;SDS011;9724;51.194;6.856;2024-01-15T02:57:04;39.37;;;14.83;;
19183;SDS011;9724;51.194;6.856;2024-01-15T02:59:31;43.60;;;16.57;;
19183;SDS011;9724;51.194;6.856;2024-01-15T03:01:57;41.10;;;16.30;;
19183;SDS011;9724;51.194;6.856;2024-01-15T03:04:23;45.87;;;17.53;;
19183;SDS011;9724;51.194;6.856;2024-01-15T03:06:50;42.93;;;16.27;;
19183;SDS011;9724;51.194;6.856;2024-01-15T03:09:16;42.03;;;15.80;;
19183;SDS011;9724;51.194;6.856;2024-01-15T03:11:42;39.20;;;16.37;;
19183;SDS011;9724;51.194;6.856;2024-01-15T03:14:08;40.23;;;15.23;;
19183;SDS011;9724;51.194;6.856;2024-01-15T03:16:35;34.93;;;15.63;;
19183;SDS011;9724;51.194;6.856;2024-01-15T03:19:01;37.20;;;14.87;;
19183;SDS011;9724;51.194;6.856;2024-01-15T03:21:28;38.00;;;15.97;;
19183;SDS011;9724;51.194;6.856;2024-01-15T03:23:54;36.17;;;16.07;;
19183;SDS011;9724;51.194;6.856;2024-01-15T03:26:20;35.93;;;15.47;;
19183;SDS011;9724;51.194;6.856;2024-01-15T03:28:46;34.57;;;14.13;;
19183;SDS011;9724;51.194;6.856;2024-01-15T03:31:13;33.70;;;13.93;;
19183;SDS011;9724;51.194;6.856;2024-01-15T03:33:40;27.20;;;13.83;;
19183;SDS011;9724;51.194;6.856;2024-01-15T03:36:06;31.87;;;13.70;;
19183;SDS011;9724;51.194;6.856;2024-01-15T03:38:34;31.07;;;13.20;;
19183;SDS011;9724;51.194;6.856;2024-01-15T03:41:00;33.50;;;12.87;;
19183;SDS011;9724;51.194;6.856;2024-01-15T03:43:27;36.87;;;12.73;;
19183;SDS011;9724;51.194;6.856;2024-01-15T03:45:53;32.90;;;13.87;;
19183;SDS011;9724;51.194;6.856;2024-01-15T03:48:19;30.33;;;13.20;;
19183;SDS011;9724;51.194;6.856;2024-01-15T03:50:46;30.00;;;13.57;;
19183;SDS011;9724;51.194;6.856;2024-01-15T03:53:12;32.07;;;12.87;;
19183;SDS011;9724;51.194;6.856;2024-01-15T03:55:39;29.13;;;13.93;;
19183;SDS011;9724;51.194;6.856;2024-01-15T03:58:05;29.40;;;12.80;;
19183;SDS011;9724;51.194;6.856;2024-01-15T04:00:31;32.33;;;13.67;;
19183;SDS011;9724;51.194;6.856;2024-01-15T04:02:57;47.83;;;14.30;;
19183;SDS011;9724;51.194;6.856;2024-01-15T04:05:23;32.90;;;13.60;;
19183;SDS011;9724;51.194;6.856;2024-01-15T04:07:50;27.77;;;13.13;;
19183;SDS011;9724;51.194;6.856;2024-01-15T04:10:16;37.30;;;13.80;;
19183;SDS011;9724;51.194;6.856;2024-01-15T04:12:43;33.03;;;12.83;;
19183;SDS011;9724;51.194;6.856;2024-01-15T04:15:11;31.00;;;13.57;;
19183;SDS011;9724;51.194;6.856;2024-01-15T04:17:37;29.67;;;12.80;;
19183;SDS011;9724;51.194;6.856;2024-01-15T04:20:04;28.90;;;12.70;;
19183;SDS011;9724;51.194;6.856;2024-01-15T04:22:32;30.80;;;12.50;;
19183;SDS011;9724;51.194;6.856;2024-01-15T04:24:59;27.60;;;12.43;;
19183;SDS011;9724;51.194;6.856;2024-01-15T04:27:25;31.73;;;13.23;;
19183;SDS011;9724;51.194;6.856;2024-01-15T04:29:51;28.23;;;12.10;;
19183;SDS011;9724;51.194;6.856;2024-01-15T04:32:18;22.87;;;12.00;;
19183;SDS011;9724;51.194;6.856;2024-01-15T04:34:45;30.07;;;12.40;;
19183;SDS011;9724;51.194;6.856;2024-01-15T04:37:11;27.00;;;11.90;;
19183;SDS011;9724;51.194;6.856;2024-01-15T04:39:39;26.97;;;11.70;;
19183;SDS011;9724;51.194;6.856;2024-01-15T04:42:06;29.90;;;12.20;;
19183;SDS011;9724;51.194;6.856;2024-01-15T04:44:32;30.40;;;11.50;;
19183;SDS011;9724;51.194;6.856;2024-01-15T04:46:58;30.57;;;11.37;;
19183;SDS011;9724;51.194;6.856;2024-01-15T04:49:24;28.23;;;11.43;;
19183;SDS011;9724;51.194;6.856;2024-01-15T04:51:52;28.70;;;11.50;;
19183;SDS011;9724;51.194;6.856;2024-01-15T04:54:19;24.97;;;11.30;;
19183;SDS011;9724;51.194;6.856;2024-01-15T04:56:46;24.77;;;11.60;;
19183;SDS011;9724;51.194;6.856;2024-01-15T04:59:13;30.13;;;10.93;;
19183;SDS011;9724;51.194;6.856;2024-01-15T05:01:40;29.53;;;10.87;;
19183;SDS011;9724;51.194;6.856;2024-01-15T05:04:06;27.60;;;10.93;;
19183;SDS011;9724;51.194;6.856;2024-01-15T05:06:32;21.80;;;10.63;;
19183;SDS011;9724;51.194;6.856;2024-01-15T05:08:58;29.57;;;10.90;;
19183;SDS011;9724;51.194;6.856;2024-01-15T05:11:26;21.63;;;9.97;;
19183;SDS011;9724;51.194;6.856;2024-01-15T05:13:52;24.53;;;11.33;;
19183;SDS011;9724;51.194;6.856;2024-01-15T05:16:19;22.10;;;10.40;;
19183;SDS011;9724;51.194;6.856;2024-01-15T05:18:45;29.00;;;10.20;;
19183;SDS011;9724;51.194;6.856;2024-01-15T05:21:11;22.00;;;10.67;;
19183;SDS011;9724;51.194;6.856;2024-01-15T05:23:38;22.27;;;9.63;;
19183;SDS011;9724;51.194;6.856;2024-01-15T05:26:04;21.60;;;9.13;;
19183;SDS011;9724;51.194;6.856;2024-01-15T05:28:30;18.30;;;8.77;;
19183;SDS011;9724;51.194;6.856;2024-01-15T05:30:56;20.07;;;9.30;;
19183;SDS011;9724;51.194;6.856;2024-01-15T05:33:23;20.53;;;8.97;;
19183;SDS011;9724;51.194;6.856;2024-01-15T05:35:50;23.47;;;8.53;;
19183;SDS011;9724;51.194;6.856;2024-01-15T05:38:16;19.33;;;8.40;;
19183;SDS011;9724;51.194;6.856;2024-01-15T05:40:42;26.27;;;9.10;;
19183;SDS011;9724;51.194;6.856;2024-01-15T05:43:08;19.10;;;9.00;;
19183;SDS011;9724;51.194;6.856;2024-01-15T05:45:35;25.30;;;9.30;;
19183;SDS011;9724;51.194;6.856;2024-01-15T05:48:03;18.43;;;9.10;;
19183;SDS011;9724;51.194;6.856;2024-01-15T05:50:31;22.53;;;8.60;;
19183;SDS011;9724;51.194;6.856;2024-01-15T05:52:57;23.87;;;8.70;;
19183;SDS011;9724;51.194;6.856;2024-01-15T05:55:23;19.00;;;8.83;;
19183;SDS011;9724;51.194;6.856;2024-01-15T05:57:49;19.83;;;7.87;;
19183;SDS011;9724;51.194;6.856;2024-01-15T06:00:16;19.37;;;9.23;;
19183;SDS011;9724;51.194;6.856;2024-01-15T06:02:42;21.30;;;8.70;;
19183;SDS011;9724;51.194;6.856;2024-01-15T06:05:08;16.73;;;7.57;;
19183;SDS011;9724;51.194;6.856;2024-01-15T06:07:35;18.77;;;7.73;;
19183;SDS011;9724;51.194;6.856;2024-01-15T06:10:02;18.43;;;7.67;;
19183;SDS011;9724;51.194;6.856;2024-01-15T06:12:28;15.10;;;7.87;;
19183;SDS011;9724;51.194;6.856;2024-01-15T06:14:54;16.40;;;8.37;;
19183;SDS011;9724;51.194;6.856;2024-01-15T06:17:20;18.13;;;8.40;;
19183;SDS011;9724;51.194;6.856;2024-01-15T06:19:47;22.33;;;7.87;;
19183;SDS011;9724;51.194;6.856;2024-01-15T06:22:13;21.30;;;8.57;;
19183;SDS011;9724;51.194;6.856;2024-01-15T06:24:40;16.53;;;7.77;;
19183;SDS011;9724;51.194;6.856;2024-01-15T06:27:06;16.23;;;8.07;;
19183;SDS011;9724;51.194;6.856;2024-01-15T06:29:33;19.80;;;8.40;;
19183;SDS011;9724;51.194;6.856;2024-01-15T06:31:59;14.83;;;7.87;;
19183;SDS011;9724;51.194;6.856;2024-01-15T06:34:25;18.40;;;8.13;;
19183;SDS011;9724;51.194;6.856;2024-01-15T06:36:52;16.00;;;8.20;;
19183;SDS011;9724;51.194;6.856;2024-01-15T06:39:18;16.63;;;8.17;;
19183;SDS011;9724;51.194;6.856;2024-01-15T06:41:45;17.33;;;7.83;;
19183;SDS011;9724;51.194;6.856;2024-01-15T06:44:11;18.07;;;7.50;;
19183;SDS011;9724;51.194;6.856;2024-01-15T06:46:41;14.43;;;6.83;;
19183;SDS011;9724;51.194;6.856;2024-01-15T06:49:08;12.70;;;6.33;;
19183;SDS011;9724;51.194;6.856;2024-01-15T06:51:34;17.57;;;5.67;;
19183;SDS011;9724;51.194;6.856;2024-01-15T06:54:01;11.13;;;5.93;;
19183;SDS011;9724;51.194;6.856;2024-01-15T06:56:27;13.07;;;6.60;;
19183;SDS011;9724;51.194;6.856;2024-01-15T06:58:54;13.93;;;6.50;;
19183;SDS011;9724;51.194;6.856;2024-01-15T07:01:20;12.57;;;6.90;;
19183;SDS011;9724;51.194;6.856;2024-01-15T07:03:47;12.10;;;6.90;;
19183;SDS011;9724;51.194;6.856;2024-01-15T07:06:13;15.13;;;7.43;;
19183;SDS011;9724;51.194;6.856;2024-01-15T07:08:40;19.73;;;7.80;;
19183;SDS011;9724;51.194;6.856;2024-01-15T07:11:06;14.30;;;7.63;;
19183;SDS011;9724;51.194;6.856;2024-01-15T07:13:33;15.43;;;7.47;;
19183;SDS011;9724;51.194;6.856;2024-01-15T07:15:59;17.73;;;7.97;;
19183;SDS011;9724;51.194;6.856;2024-01-15T07:18:26;16.37;;;8.67;;
19183;SDS011;9724;51.194;6.856;2024-01-15T07:20:52;19.97;;;8.00;;
19183;SDS011;9724;51.194;6.856;2024-01-15T07:23:19;22.03;;;9.20;;
19183;SDS011;9724;51.194;6.856;2024-01-15T07:25:45;25.90;;;9.77;;
19183;SDS011;9724;51.194;6.856;2024-01-15T07:28:11;26.17;;;9.60;;
19183;SDS011;9724;51.194;6.856;2024-01-15T07:30:38;25.73;;;10.93;;
19183;SDS011;9724;51.194;6.856;2024-01-15T07:33:05;24.40;;;10.43;;
19183;SDS011;9724;51.194;6.856;2024-01-15T07:35:31;21.00;;;10.63;;
19183;SDS011;9724;51.194;6.856;2024-01-15T07:37:58;28.70;;;10.93;;
19183;SDS011;9724;51.194;6.856;2024-01-15T07:40:24;23.33;;;10.57;;
19183;SDS011;9724;51.194;6.856;2024-01-15T07:42:50;20.83;;;10.10;;
19183;SDS011;9724;51.194;6.856;2024-01-15T07:45:16;23.07;;;9.87;;
19183;SDS011;9724;51.194;6.856;2024-01-15T07:47:43;21.47;;;10.40;;
19183;SDS011;9724;51.194;6.856;2024-01-15T07:50:10;24.80;;;10.53;;
19183;SDS011;9724;51.194;6.856;2024-01-15T07:52:37;26.80;;;10.93;;
19183;SDS011;9724;51.194;6.856;2024-01-15T07:55:03;20.57;;;9.90;;
19183;SDS011;9724;51.194;6.856;2024-01-15T07:57:30;20.80;;;10.97;;
19183;SDS011;9724;51.194;6.856;2024-01-15T07:59:57;23.90;;;10.13;;
19183;SDS011;9724;51.194;6.856;2024-01-15T08:02:23;17.90;;;10.60;;
19183;SDS011;9724;51.194;6.856;2024-01-15T08:04:49;20.43;;;10.20;;
19183;SDS011;9724;51.194;6.856;2024-01-15T08:07:16;22.20;;;10.50;;
19183;SDS011;9724;51.194;6.856;2024-01-15T08:09:43;25.63;;;11.00;;
19183;SDS011;9724;51.194;6.856;2024-01-15T08:12:12;27.63;;;11.53;;
19183;SDS011;9724;51.194;6.856;2024-01-15T08:14:38;27.77;;;12.13;;
19183;SDS011;9724;51.194;6.856;2024-01-15T08:17:04;32.40;;;12.30;;
19183;SDS011;9724;51.194;6.856;2024-01-15T08:19:31;25.10;;;12.53;;
19183;SDS011;9724;51.194;6.856;2024-01-15T08:21:57;31.47;;;12.67;;
19183;SDS011;9724;51.194;6.856;2024-01-15T08:24:24;28.40;;;13.30;;
19183;SDS011;9724;51.194;6.856;2024-01-15T08:26:51;29.30;;;13.03;;
19183;SDS011;9724;51.194;6.856;2024-01-15T08:29:17;34.67;;;13.23;;
19183;SDS011;9724;51.194;6.856;2024-01-15T08:31:46;28.53;;;14.07;;
19183;SDS011;9724;51.194;6.856;2024-01-15T08:34:12;34.47;;;14.13;;
19183;SDS011;9724;51.194;6.856;2024-01-15T08:36:39;30.07;;;13.53;;
19183;SDS011;9724;51.194;6.856;2024-01-15T08:39:06;30.93;;;13.60;;
19183;SDS011;9724;51.194;6.856;2024-01-15T08:41:33;29.70;;;13.70;;
19183;SDS011;9724;51.194;6.856;2024-01-15T08:44:00;27.80;;;12.87;;
19183;SDS011;9724;51.194;6.856;2024-01-15T08:46:26;26.80;;;12.43;;
19183;SDS011;9724;51.194;6.856;2024-01-15T08:48:52;24.17;;;11.97;;
19183;SDS011;9724;51.194;6.856;2024-01-15T08:51:19;26.40;;;12.40;;
19183;SDS011;9724;51.194;6.856;2024-01-15T08:53:45;25.47;;;12.03;;
19183;SDS011;9724;51.194;6.856;2024-01-15T08:56:11;25.70;;;12.33;;
19183;SDS011;9724;51.194;6.856;2024-01-15T08:58:38;24.43;;;11.13;;
19183;SDS011;9724;51.194;6.856;2024-01-15T09:01:04;26.60;;;12.83;;
19183;SDS011;9724;51.194;6.856;2024-01-15T09:03:31;28.17;;;12.77;;
19183;SDS011;9724;51.194;6.856;2024-01-15T09:05:59;25.03;;;12.40;;
19183;SDS011;9724;51.194;6.856;2024-01-15T09:08:25;27.07;;;11.77;;
19183;SDS011;9724;51.194;6.856;2024-01-15T09:10:53;25.87;;;12.30;;
19183;SDS011;9724;51.194;6.856;2024-01-15T09:13:19;24.03;;;12.07;;
19183;SDS011;9724;51.194;6.856;2024-01-15T09:15:46;29.07;;;12.30;;
19183;SDS011;9724;51.194;6.856;2024-01-15T09:18:12;27.03;;;12.77;;
19183;SDS011;9724;51.194;6.856;2024-01-15T09:20:38;25.87;;;13.47;;
19183;SDS011;9724;51.194;6.856;2024-01-15T09:23:05;24.03;;;11.53;;
19183;SDS011;9724;51.194;6.856;2024-01-15T09:25:31;24.27;;;12.90;;
19183;SDS011;9724;51.194;6.856;2024-01-15T09:27:57;19.97;;;11.63;;
19183;SDS011;9724;51.194;6.856;2024-01-15T09:30:24;25.60;;;12.47;;
19183;SDS011;9724;51.194;6.856;2024-01-15T09:32:51;24.27;;;11.90;;
19183;SDS011;9724;51.194;6.856;2024-01-15T09:35:17;24.33;;;12.17;;
19183;SDS011;9724;51.194;6.856;2024-01-15T09:37:43;22.83;;;11.77;;
19183;SDS011;9724;51.194;6.856;2024-01-15T09:40:14;25.77;;;11.83;;
19183;SDS011;9724;51.194;6.856;2024-01-15T09:42:40;18.10;;;10.63;;
19183;SDS011;9724;51.194;6.856;2024-01-15T09:45:07;20.77;;;11.20;;
19183;SDS011;9724;51.194;6.856;2024-01-15T09:47:34;23.50;;;11.70;;
19183;SDS011;9724;51.194;6.856;2024-01-15T09:50:01;23.83;;;10.87;;
19183;SDS011;9724;51.194;6.856;2024-01-15T09:52:29;22.50;;;10.53;;
19183;SDS011;9724;51.194;6.856;2024-01-15T09:54:56;21.30;;;11.47;;
19183;SDS011;9724;51.194;6.856;2024-01-15T09:57:23;18.43;;;10.20;;
19183;SDS011;9724;51.194;6.856;2024-01-15T09:59:50;19.97;;;10.43;;
19183;SDS011;9724;51.194;6.856;2024-01-15T10:02:17;19.23;;;10.53;;
19183;SDS011;9724;51.194;6.856;2024-01-15T10:04:44;20.00;;;9.83;;
19183;SDS011;9724;51.194;6.856;2024-01-15T10:07:11;16.60;;;9.90;;
19183;SDS011;9724;51.194;6.856;2024-01-15T10:09:41;16.63;;;9.40;;
19183;SDS011;9724;51.194;6.856;2024-01-15T10:12:07;18.17;;;9.50;;
19183;SDS011;9724;51.194;6.856;2024-01-15T10:14:35;16.47;;;9.27;;
19183;SDS011;9724;51.194;6.856;2024-01-15T10:17:01;13.30;;;9.07;;
19183;SDS011;9724;51.194;6.856;2024-01-15T10:19:40;14.60;;;8.90;;
19183;SDS011;9724;51.194;6.856;2024-01-15T10:22:09;13.53;;;8.20;;
19183;SDS011;9724;51.194;6.856;2024-01-15T10:24:36;12.90;;;8.20;;
19183;SDS011;9724;51.194;6.856;2024-01-15T10:27:06;12.57;;;7.47;;
19183;SDS011;9724;51.194;6.856;2024-01-15T10:29:33;9.70;;;6.67;;
19183;SDS011;9724;51.194;6.856;2024-01-15T10:31:59;10.90;;;7.43;;
19183;SDS011;9724;51.194;6.856;2024-01-15T10:34:26;11.20;;;6.50;;
19183;SDS011;9724;51.194;6.856;2024-01-15T10:36:53;12.53;;;6.70;;
19183;SDS011;9724;51.194;6.856;2024-01-15T10:39:21;12.57;;;6.77;;
19183;SDS011;9724;51.194;6.856;2024-01-15T10:41:48;8.73;;;6.00;;
19183;SDS011;9724;51.194;6.856;2024-01-15T10:44:14;8.03;;;5.60;;
19183;SDS011;9724;51.194;6.856;2024-01-15T10:46:41;5.90;;;5.20;;
19183;SDS011;9724;51.194;6.856;2024-01-15T10:49:07;5.80;;;4.80;;
19183;SDS011;9724;51.194;6.856;2024-01-15T10:51:34;6.93;;;5.20;;
19183;SDS011;9724;51.194;6.856;2024-01-15T10:54:00;7.43;;;5.33;;
19183;SDS011;9724;51.194;6.856;2024-01-15T10:56:27;8.03;;;5.10;;
19183;SDS011;9724;51.194;6.856;2024-01-15T10:58:54;5.93;;;4.53;;
19183;SDS011;9724;51.194;6.856;2024-01-15T11:01:26;14.00;;;4.57;;
19183;SDS011;9724;51.194;6.856;2024-01-15T11:03:56;7.10;;;4.37;;
19183;SDS011;9724;51.194;6.856;2024-01-15T11:06:23;7.67;;;4.50;;
19183;SDS011;9724;51.194;6.856;2024-01-15T11:08:50;6.97;;;3.83;;
19183;SDS011;9724;51.194;6.856;2024-01-15T11:11:18;7.73;;;3.80;;
19183;SDS011;9724;51.194;6.856;2024-01-15T11:13:46;5.10;;;3.13;;
19183;SDS011;9724;51.194;6.856;2024-01-15T11:16:15;7.10;;;3.80;;
19183;SDS011;9724;51.194;6.856;2024-01-15T11:18:42;5.87;;;3.07;;
19183;SDS011;9724;51.194;6.856;2024-01-15T11:21:22;5.77;;;2.70;;
19183;SDS011;9724;51.194;6.856;2024-01-15T11:23:50;4.97;;;2.90;;
19183;SDS011;9724;51.194;6.856;2024-01-15T11:31:57;5.30;;;2.33;;
19183;SDS011;9724;51.194;6.856;2024-01-15T11:37:18;4.37;;;2.10;;
19183;SDS011;9724;51.194;6.856;2024-01-15T11:39:45;3.80;;;1.63;;
19183;SDS011;9724;51.194;6.856;2024-01-15T11:42:12;3.13;;;2.00;;
19183;SDS011;9724;51.194;6.856;2024-01-15T11:44:39;5.33;;;2.60;;
19183;SDS011;9724;51.194;6.856;2024-01-15T11:47:06;5.13;;;2.13;;
19183;SDS011;9724;51.194;6.856;2024-01-15T11:49:43;3.50;;;2.03;;
19183;SDS011;9724;51.194;6.856;2024-01-15T11:52:25;4.50;;;2.63;;
19183;SDS011;9724;51.194;6.856;2024-01-15T11:54:52;4.17;;;2.87;;
19183;SDS011;9724;51.194;6.856;2024-01-15T11:57:25;4.13;;;3.00;;
19183;SDS011;9724;51.194;6.856;2024-01-15T11:59:54;7.40;;;3.13;;
19183;SDS011;9724;51.194;6.856;2024-01-15T12:02:21;8.20;;;3.37;;
19183;SDS011;9724;51.194;6.856;2024-01-15T12:04:48;6.57;;;3.50;;
19183;SDS011;9724;51.194;6.856;2024-01-15T12:07:14;6.73;;;3.70;;
19183;SDS011;9724;51.194;6.856;2024-01-15T12:09:42;5.60;;;3.90;;
19183;SDS011;9724;51.194;6.856;2024-01-15T12:12:09;7.40;;;4.33;;
19183;SDS011;9724;51.194;6.856;2024-01-15T12:14:39;6.17;;;3.67;;
19183;SDS011;9724;51.194;6.856;2024-01-15T12:17:05;6.93;;;3.80;;
19183;SDS011;9724;51.194;6.856;2024-01-15T12:19:32;10.73;;;3.70;;
19183;SDS011;9724;51.194;6.856;2024-01-15T12:21:58;9.17;;;4.13;;
19183;SDS011;9724;51.194;6.856;2024-01-15T12:24:25;9.50;;;3.97;;
19183;SDS011;9724;51.194;6.856;2024-01-15T12:26:51;8.90;;;3.90;;
19183;SDS011;9724;51.194;6.856;2024-01-15T12:29:17;9.27;;;4.03;;
19183;SDS011;9724;51.194;6.856;2024-01-15T12:31:46;8.53;;;4.40;;
19183;SDS011;9724;51.194;6.856;2024-01-15T12:34:12;5.70;;;3.97;;
19183;SDS011;9724;51.194;6.856;2024-01-15T12:36:40;7.33;;;4.07;;
19183;SDS011;9724;51.194;6.856;2024-01-15T12:39:10;6.03;;;4.43;;
19183;SDS011;9724;51.194;6.856;2024-01-15T12:41:37;6.50;;;4.63;;
19183;SDS011;9724;51.194;6.856;2024-01-15T12:44:04;10.73;;;5.30;;
19183;SDS011;9724;51.194;6.856;2024-01-15T12:46:30;9.03;;;5.40;;
19183;SDS011;9724;51.194;6.856;2024-01-15T12:48:57;10.47;;;6.17;;
19183;SDS011;9724;51.194;6.856;2024-01-15T12:51:24;18.20;;;6.57;;
19183;SDS011;9724;51.194;6.856;2024-01-15T12:53:51;14.00;;;6.73;;
19183;SDS011;9724;51.194;6.856;2024-01-15T12:56:17;11.47;;;6.60;;
19183;SDS011;9724;51.194;6.856;2024-01-15T12:58:43;10.20;;;6.70;;
19183;SDS011;9724;51.194;6.856;2024-01-15T13:01:10;11.80;;;6.37;;
19183;SDS011;9724;51.194;6.856;2024-01-15T13:03:36;7.03;;;5.93;;
19183;SDS011;9724;51.194;6.856;2024-01-15T13:06:03;8.20;;;6.07;;
19183;SDS011;9724;51.194;6.856;2024-01-15T13:08:29;7.73;;;5.90;;
19183;SDS011;9724;51.194;6.856;2024-01-15T13:10:56;10.53;;;6.30;;
19183;SDS011;9724;51.194;6.856;2024-01-15T13:13:23;12.40;;;5.30;;
19183;SDS011;9724;51.194;6.856;2024-01-15T13:15:49;8.47;;;5.27;;
19183;SDS011;9724;51.194;6.856;2024-01-15T13:18:15;7.50;;;5.43;;
19183;SDS011;9724;51.194;6.856;2024-01-15T13:20:42;6.60;;;5.00;;
19183;SDS011;9724;51.194;6.856;2024-01-15T13:23:08;6.77;;;4.33;;
19183;SDS011;9724;51.194;6.856;2024-01-15T13:25:35;8.23;;;4.40;;
19183;SDS011;9724;51.194;6.856;2024-01-15T13:28:04;9.57;;;4.30;;
19183;SDS011;9724;51.194;6.856;2024-01-15T13:30:31;14.37;;;4.67;;
19183;SDS011;9724;51.194;6.856;2024-01-15T13:32:57;8.53;;;4.00;;
19183;SDS011;9724;51.194;6.856;2024-01-15T13:35:29;10.90;;;3.63;;
19183;SDS011;9724;51.194;6.856;2024-01-15T13:37:55;7.77;;;3.87;;
19183;SDS011;9724;51.194;6.856;2024-01-15T13:40:21;6.13;;;3.83;;
19183;SDS011;9724;51.194;6.856;2024-01-15T13:42:48;3.80;;;2.80;;
19183;SDS011;9724;51.194;6.856;2024-01-15T13:45:15;4.23;;;3.07;;
19183;SDS011;9724;51.194;6.856;2024-01-15T13:47:41;8.70;;;3.37;;
19183;SDS011;9724;51.194;6.856;2024-01-15T13:50:09;2.90;;;2.70;;
19183;SDS011;9724;51.194;6.856;2024-01-15T13:52:35;2.63;;;2.43;;
19183;SDS011;9724;51.194;6.856;2024-01-15T13:55:01;6.33;;;2.37;;
19183;SDS011;9724;51.194;6.856;2024-01-15T13:57:28;3.53;;;2.03;;
19183;SDS011;9724;51.194;6.856;2024-01-15T13:59:54;3.50;;;2.00;;
19183;SDS011;9724;51.194;6.856;2024-01-15T14:02:21;3.17;;;2.10;;
19183;SDS011;9724;51.194;6.856;2024-01-15T14:04:50;6.03;;;2.20;;
19183;SDS011;9724;51.194;6.856;2024-01-15T14:07:16;3.13;;;1.70;;
19183;SDS011;9724;51.194;6.856;2024-01-15T14:09:42;2.53;;;2.00;;
19183;SDS011;9724;51.194;6.856;2024-01-15T14:12:09;3.77;;;1.93;;
19183;SDS011;9724;51.194;6.856;2024-01-15T14:14:35;2.13;;;1.60;;
19183;SDS011;9724;51.194;6.856;2024-01-15T14:17:01;3.87;;;1.60;;
19183;SDS011;9724;51.194;6.856;2024-01-15T14:19:28;1.77;;;1.67;;
19183;SDS011;9724;51.194;6.856;2024-01-15T14:21:55;2.73;;;1.50;;
19183;SDS011;9724;51.194;6.856;2024-01-15T14:24:21;4.00;;;1.90;;
19183;SDS011;9724;51.194;6.856;2024-01-15T14:26:47;1.80;;;1.53;;
19183;SDS011;9724;51.194;6.856;2024-01-15T14:29:13;8.13;;;1.63;;
19183;SDS011;9724;51.194;6.856;2024-01-15T14:31:40;2.10;;;1.80;;
19183;SDS011;9724;51.194;6.856;2024-01-15T14:34:06;2.20;;;1.50;;
19183;SDS011;9724;51.194;6.856;2024-01-15T14:36:34;5.73;;;2.00;;
19183;SDS011;9724;51.194;6.856;2024-01-15T14:39:00;2.37;;;2.17;;
19183;SDS011;9724;51.194;6.856;2024-01-15T14:41:27;2.10;;;1.70;;
19183;SDS011;9724;51.194;6.856;2024-01-15T14:43:53;1.83;;;1.73;;
19183;SDS011;9724;51.194;6.856;2024-01-15T14:46:19;3.20;;;2.00;;
19183;SDS011;9724;51.194;6.856;2024-01-15T14:48:46;2.60;;;1.80;;